Terminal Aerodrome Forecast
Issued by NWS Binghamton, NY

Home | Current Version | Previous Version | Text Only | Print | Product List | Glossary On
Versions: 1 2 3 4 5 6 7 8 9 10 11 12 13 14 15 16 17 18 19
000
FTUS41 KBGM 011720
TAFSYR
TAF
KSYR 011720Z 0118/0218 09009KT P6SM OVC023
     FM012200 10008KT P6SM -DZ OVC025
     FM020400 11007KT 5SM -DZ BR OVC010
     FM021200 12005KT 3SM -DZ BR OVC008
     FM021500 13006KT P6SM BKN030=

USA.gov is the U.S. government's official web portal to all federal, state and local government web resources and services.